createdAt,value
2018-04-06T00:01:10.750Z,4.73
2018-04-06T00:03:38.266Z,4.69
2018-04-06T00:06:05.793Z,4.59
2018-04-06T00:08:33.323Z,4.68
2018-04-06T00:11:00.868Z,4.53
2018-04-06T00:13:28.413Z,4.52
2018-04-06T00:15:55.975Z,4.47
2018-04-06T00:18:23.498Z,4.49
2018-04-06T00:20:51.024Z,4.44
2018-04-06T00:23:18.553Z,4.51
2018-04-06T00:25:46.139Z,4.55
2018-04-06T00:28:13.705Z,4.44
2018-04-06T00:30:41.232Z,4.55
2018-04-06T00:33:08.778Z,4.50
2018-04-06T00:35:36.306Z,4.33
2018-04-06T00:38:03.829Z,4.33
2018-04-06T00:40:31.359Z,4.39
2018-04-06T00:42:58.881Z,4.36
2018-04-06T00:45:26.401Z,4.34
2018-04-06T00:47:53.980Z,4.30
2018-04-06T00:50:21.510Z,4.36
2018-04-06T00:52:49.102Z,4.29
2018-04-06T00:55:16.608Z,4.24
2018-04-06T00:57:44.221Z,4.22
2018-04-06T01:00:11.730Z,4.24
2018-04-06T01:02:39.262Z,4.25
2018-04-06T01:05:06.770Z,4.22
2018-04-06T01:07:34.320Z,4.17
2018-04-06T01:10:01.918Z,4.10
2018-04-06T01:12:29.442Z,4.12
2018-04-06T01:14:56.991Z,4.08
2018-04-06T01:17:24.505Z,4.08
2018-04-06T01:19:52.041Z,4.09
2018-04-06T01:22:19.598Z,4.20
2018-04-06T01:24:47.111Z,4.09
2018-04-06T01:27:14.636Z,3.99
2018-04-06T01:29:42.158Z,4.06
2018-04-06T01:32:09.672Z,4.03
2018-04-06T01:34:37.193Z,3.94
2018-04-06T01:37:04.702Z,3.99
2018-04-06T01:39:32.213Z,3.94
2018-04-06T01:41:59.717Z,3.91
2018-04-06T01:44:27.244Z,3.84
2018-04-06T01:46:54.821Z,3.93
2018-04-06T01:49:22.470Z,3.89
2018-04-06T01:51:49.990Z,3.90
2018-04-06T01:54:17.542Z,3.78
2018-04-06T01:56:45.058Z,3.73
2018-04-06T01:59:12.584Z,3.70
2018-04-06T02:01:40.119Z,3.64
2018-04-06T02:04:07.639Z,3.67
2018-04-06T02:06:35.286Z,3.61
2018-04-06T02:09:02.809Z,3.58
2018-04-06T02:11:30.335Z,3.68
2018-04-06T02:13:57.845Z,3.58
2018-04-06T02:16:25.353Z,3.59
2018-04-06T02:18:52.893Z,3.48
2018-04-06T02:21:20.411Z,3.53
2018-04-06T02:23:47.934Z,3.51
2018-04-06T02:26:15.456Z,3.51
2018-04-06T02:28:43.017Z,3.43
2018-04-06T02:31:10.577Z,3.48
2018-04-06T02:33:38.099Z,3.44
2018-04-06T02:36:05.696Z,3.39
2018-04-06T02:38:33.209Z,3.49
2018-04-06T02:41:00.724Z,3.44
2018-04-06T02:43:28.242Z,3.44
2018-04-06T02:45:55.795Z,3.38
2018-04-06T02:48:23.327Z,3.36
2018-04-06T02:50:50.938Z,3.34
2018-04-06T02:53:18.463Z,3.41
2018-04-06T02:55:46.091Z,3.45
2018-04-06T02:58:13.722Z,3.33
2018-04-06T03:00:41.239Z,3.38
2018-04-06T03:03:08.796Z,3.34
2018-04-06T03:05:36.324Z,3.39
2018-04-06T03:08:03.841Z,3.31
2018-04-06T03:10:31.363Z,3.25
2018-04-06T03:12:58.892Z,3.34
2018-04-06T03:15:26.411Z,3.26
2018-04-06T03:17:53.963Z,3.22
2018-04-06T03:20:21.476Z,3.26
2018-04-06T03:22:49.025Z,3.14
2018-04-06T03:25:16.553Z,3.28
2018-04-06T03:27:44.069Z,3.26
2018-04-06T03:30:11.573Z,3.17
2018-04-06T03:32:39.088Z,3.09
2018-04-06T03:35:06.625Z,3.13
2018-04-06T03:37:34.149Z,3.13
2018-04-06T03:40:01.699Z,3.19
2018-04-06T03:42:29.214Z,3.17
2018-04-06T03:44:56.764Z,3.08
2018-04-06T03:47:24.286Z,3.17
2018-04-06T03:49:51.809Z,3.04
2018-04-06T03:52:19.437Z,3.06
2018-04-06T03:54:47.001Z,3.06
2018-04-06T03:57:14.517Z,3.00
2018-04-06T03:59:42.111Z,3.01
2018-04-06T04:02:09.631Z,2.99
2018-04-06T04:04:37.167Z,3.01
2018-04-06T04:07:04.710Z,3.02
2018-04-06T04:09:32.228Z,3.02
2018-04-06T04:11:59.741Z,3.09
2018-04-06T04:14:27.379Z,3.03
2018-04-06T04:16:54.904Z,3.05
2018-04-06T04:19:22.418Z,2.95
2018-04-06T04:21:50.054Z,2.94
2018-04-06T04:24:17.600Z,3.12
2018-04-06T04:26:45.104Z,3.08
2018-04-06T04:29:12.622Z,2.97
2018-04-06T04:31:40.183Z,3.03
2018-04-06T04:34:07.728Z,2.86
2018-04-06T04:36:35.271Z,2.82
2018-04-06T04:39:02.801Z,2.89
2018-04-06T04:41:30.320Z,2.96
2018-04-06T04:43:57.829Z,2.99
2018-04-06T04:46:25.347Z,3.01
2018-04-06T04:48:52.878Z,3.08
2018-04-06T04:51:20.397Z,3.15
2018-04-06T04:53:47.924Z,3.11
2018-04-06T04:56:15.453Z,3.17
2018-04-06T04:58:43.002Z,3.11
2018-04-06T05:01:10.517Z,3.13
2018-04-06T05:03:38.026Z,3.11
2018-04-06T05:06:05.555Z,3.14
2018-04-06T05:08:33.083Z,3.19
2018-04-06T05:11:00.607Z,3.24
2018-04-06T05:13:28.120Z,3.28
2018-04-06T05:15:55.633Z,3.33
2018-04-06T05:18:23.221Z,3.48
2018-04-06T05:20:50.748Z,3.52
2018-04-06T05:23:18.341Z,3.47
2018-04-06T05:25:45.867Z,3.64
2018-04-06T05:28:13.393Z,3.65
2018-04-06T05:30:40.914Z,4.10
2018-04-06T05:33:08.434Z,4.25
2018-04-06T05:35:35.949Z,4.53
2018-04-06T05:38:03.462Z,4.51
2018-04-06T05:40:30.985Z,4.96
2018-04-06T05:42:58.600Z,5.16
2018-04-06T05:45:26.172Z,5.41
2018-04-06T05:47:53.731Z,5.57
2018-04-06T05:50:21.265Z,5.56
2018-04-06T05:52:48.851Z,5.98
2018-04-06T05:55:16.415Z,5.94
2018-04-06T05:57:43.942Z,6.45
2018-04-06T06:00:11.537Z,6.55
2018-04-06T06:02:39.132Z,6.94
2018-04-06T06:05:06.658Z,6.83
2018-04-06T06:07:34.185Z,6.61
2018-04-06T06:10:01.702Z,7.33
2018-04-06T06:12:29.235Z,7.47
2018-04-06T06:14:56.761Z,7.91
2018-04-06T06:17:24.282Z,7.74
2018-04-06T06:19:51.810Z,7.96
2018-04-06T06:22:19.327Z,9.04
2018-04-06T06:24:46.842Z,9.03
2018-04-06T06:27:14.353Z,9.75
2018-04-06T06:29:41.948Z,9.92
2018-04-06T06:32:09.464Z,9.52
2018-04-06T06:34:37.055Z,10.08
2018-04-06T06:37:04.565Z,9.73
2018-04-06T06:39:32.081Z,10.30
2018-04-06T06:41:59.598Z,11.17
2018-04-06T06:44:27.127Z,10.95
2018-04-06T06:46:54.752Z,11.05
2018-04-06T06:49:22.282Z,11.41
2018-04-06T06:51:49.819Z,10.63
2018-04-06T06:54:17.403Z,11.46
2018-04-06T06:56:45.006Z,11.37
2018-04-06T06:59:12.530Z,11.38
2018-04-06T07:01:40.120Z,10.18
2018-04-06T07:04:07.641Z,11.16
2018-04-06T07:06:35.169Z,12.20
2018-04-06T07:09:02.686Z,11.76
2018-04-06T07:11:30.206Z,11.75
2018-04-06T07:13:57.733Z,11.84
2018-04-06T07:16:25.278Z,12.62
2018-04-06T07:18:52.826Z,12.95
2018-04-06T07:21:20.357Z,12.94
2018-04-06T07:23:47.985Z,12.67
2018-04-06T07:26:15.517Z,12.78
2018-04-06T07:28:43.047Z,13.39
2018-04-06T07:31:10.571Z,11.93
2018-04-06T07:33:38.103Z,13.16
2018-04-06T07:36:05.630Z,13.26
2018-04-06T07:38:33.157Z,13.21
2018-04-06T07:41:00.764Z,13.89
2018-04-06T07:43:28.344Z,14.84
2018-04-06T07:45:55.867Z,13.84
2018-04-06T07:48:23.387Z,14.10
2018-04-06T07:50:50.918Z,14.32
2018-04-06T07:53:18.632Z,14.25
2018-04-06T07:55:46.186Z,14.20
2018-04-06T07:58:13.800Z,14.88
2018-04-06T08:00:41.325Z,14.09
2018-04-06T08:03:08.849Z,15.10
2018-04-06T08:05:36.506Z,15.34
2018-04-06T08:08:04.038Z,15.04
2018-04-06T08:10:31.560Z,15.60
2018-04-06T08:12:59.130Z,15.71
2018-04-06T08:15:26.646Z,15.66
2018-04-06T08:17:54.175Z,15.85
2018-04-06T08:20:21.713Z,14.36
2018-04-06T08:22:49.236Z,14.26
2018-04-06T08:25:16.859Z,15.15
2018-04-06T08:27:44.388Z,15.57
2018-04-06T08:30:11.931Z,15.02
2018-04-06T08:32:39.538Z,15.11
2018-04-06T08:35:07.056Z,15.91
2018-04-06T08:37:34.593Z,15.63
2018-04-06T08:40:02.201Z,16.94
2018-04-06T08:42:29.824Z,16.34
2018-04-06T08:44:57.304Z,17.80
2018-04-06T08:47:24.826Z,16.63
2018-04-06T08:49:52.344Z,16.06
2018-04-06T08:52:19.866Z,15.86
2018-04-06T08:54:47.440Z,16.87
2018-04-06T08:57:14.951Z,17.32
2018-04-06T08:59:42.465Z,18.18
2018-04-06T09:02:09.984Z,16.68
2018-04-06T09:04:37.603Z,18.81
2018-04-06T09:07:05.174Z,16.40
2018-04-06T09:09:32.689Z,16.66
2018-04-06T09:12:00.219Z,17.57
2018-04-06T09:14:27.857Z,17.84
2018-04-06T09:16:55.430Z,18.14
2018-04-06T09:19:22.980Z,19.16
2018-04-06T09:21:50.518Z,17.84
2018-04-06T09:24:18.042Z,16.35
2018-04-06T09:26:45.630Z,18.03
2018-04-06T09:29:13.153Z,16.87
2018-04-06T09:31:40.674Z,17.97
2018-04-06T09:34:08.198Z,19.16
2018-04-06T09:36:35.752Z,17.74
2018-04-06T09:39:03.280Z,17.60
2018-04-06T09:41:30.951Z,17.90
2018-04-06T09:43:58.453Z,18.03
2018-04-06T09:46:25.990Z,18.85
2018-04-06T09:48:53.580Z,20.15
2018-04-06T09:51:21.123Z,20.87
2018-04-06T09:53:48.730Z,19.68
2018-04-06T09:56:16.258Z,19.08
2018-04-06T09:58:43.823Z,19.19
2018-04-06T10:01:11.332Z,21.32
2018-04-06T10:03:38.957Z,20.68
2018-04-06T10:06:06.518Z,20.99
2018-04-06T10:08:34.030Z,21.89
2018-04-06T10:11:01.558Z,20.18
2018-04-06T10:13:29.073Z,20.42
2018-04-06T10:15:56.592Z,19.93
2018-04-06T10:18:24.112Z,20.65
2018-04-06T10:20:51.621Z,19.13
2018-04-06T10:35:58.769Z,22.23
2018-04-06T10:38:26.297Z,18.50
2018-04-06T10:40:53.824Z,17.79
2018-04-06T10:43:21.386Z,17.95
2018-04-06T10:45:48.928Z,18.97
2018-04-06T10:48:16.537Z,18.04
2018-04-06T10:50:44.097Z,17.91
2018-04-06T10:53:11.618Z,16.92
2018-04-06T10:55:39.175Z,16.22
2018-04-06T10:58:06.779Z,17.15
2018-04-06T11:00:34.302Z,16.21
2018-04-06T11:03:01.912Z,15.43
2018-04-06T11:05:29.422Z,15.83
2018-04-06T11:07:56.986Z,15.33
2018-04-06T11:10:24.516Z,14.71
2018-04-06T11:12:52.136Z,15.32
2018-04-06T11:15:19.666Z,14.91
2018-04-06T11:17:47.183Z,13.95
2018-04-06T11:20:14.714Z,14.43
2018-04-06T11:22:42.240Z,15.36
2018-04-06T11:25:09.759Z,14.52
2018-04-06T11:27:37.293Z,14.25
2018-04-06T11:30:04.818Z,14.11
2018-04-06T11:32:32.461Z,13.50
2018-04-06T11:34:59.990Z,13.20
2018-04-06T11:37:27.568Z,13.76
2018-04-06T11:39:55.141Z,14.21
2018-04-06T11:42:22.829Z,13.46
2018-04-06T11:44:50.352Z,13.37
2018-04-06T11:47:17.873Z,13.62
2018-04-06T11:49:45.408Z,13.54
2018-04-06T11:52:12.948Z,13.51
2018-04-06T11:54:40.469Z,13.44
2018-04-06T11:57:07.979Z,13.23
2018-04-06T11:59:35.505Z,13.56
2018-04-06T12:02:03.029Z,13.48
2018-04-06T12:04:30.559Z,13.46
2018-04-06T12:06:58.157Z,13.26
2018-04-06T12:09:25.672Z,13.31
2018-04-06T12:11:53.273Z,13.40
2018-04-06T12:14:20.795Z,13.44
2018-04-06T12:16:48.323Z,13.67
2018-04-06T12:19:15.958Z,13.50
2018-04-06T12:21:43.473Z,13.38
2018-04-06T12:24:11.072Z,13.45
2018-04-06T12:26:38.631Z,13.65
2018-04-06T12:29:06.155Z,13.17
2018-04-06T12:31:33.683Z,13.16
2018-04-06T12:34:01.218Z,13.34
2018-04-06T12:36:28.734Z,13.72
2018-04-06T12:38:56.257Z,13.49
2018-04-06T12:41:23.785Z,13.33
2018-04-06T12:43:51.347Z,13.19
2018-04-06T12:46:18.899Z,13.93
2018-04-06T12:48:46.413Z,13.58
2018-04-06T12:51:14.024Z,13.08
2018-04-06T12:53:41.568Z,13.25
2018-04-06T12:56:09.114Z,13.22
2018-04-06T12:58:36.809Z,13.37
2018-04-06T13:01:04.335Z,13.48
2018-04-06T13:03:31.857Z,13.67
2018-04-06T13:05:59.482Z,13.82
2018-04-06T13:08:27.008Z,13.98
2018-04-06T13:10:54.562Z,13.56
2018-04-06T13:13:22.100Z,13.52
2018-04-06T13:15:49.722Z,13.53
2018-04-06T13:18:17.273Z,13.61
2018-04-06T13:20:44.803Z,13.34
2018-04-06T13:23:12.346Z,13.26
2018-04-06T13:25:39.888Z,13.13
2018-04-06T13:28:07.391Z,13.11
2018-04-06T13:30:34.913Z,13.15
2018-04-06T13:33:02.545Z,13.08
2018-04-06T13:35:30.106Z,13.10
2018-04-06T13:37:57.621Z,13.15
2018-04-06T13:40:25.159Z,13.36
2018-04-06T13:42:52.678Z,13.38
2018-04-06T13:45:20.193Z,13.29
2018-04-06T13:47:47.727Z,13.32
2018-04-06T13:50:15.233Z,13.49
2018-04-06T13:52:42.821Z,13.19
2018-04-06T13:55:10.382Z,13.61
2018-04-06T13:57:37.891Z,13.44
2018-04-06T14:00:05.409Z,13.61
2018-04-06T14:02:32.940Z,13.75
2018-04-06T14:05:00.451Z,13.51
2018-04-06T14:07:27.965Z,13.30
2018-04-06T14:09:55.484Z,13.31
2018-04-06T14:12:23.020Z,13.47
2018-04-06T14:14:50.537Z,13.17
2018-04-06T14:17:18.050Z,13.14
2018-04-06T14:19:45.574Z,13.26
2018-04-06T14:22:13.102Z,13.22
2018-04-06T14:24:40.631Z,13.03
2018-04-06T14:27:08.231Z,13.12
2018-04-06T14:29:35.746Z,13.28
2018-04-06T14:32:03.368Z,13.21
2018-04-06T14:34:30.891Z,13.27
2018-04-06T14:36:58.418Z,13.25
2018-04-06T14:39:25.933Z,13.21
2018-04-06T14:41:53.451Z,13.02
2018-04-06T14:44:20.990Z,13.08
2018-04-06T14:46:48.524Z,13.16
2018-04-06T14:49:16.037Z,13.10
2018-04-06T14:51:43.565Z,13.13
2018-04-06T14:54:11.102Z,13.17
2018-04-06T14:56:38.630Z,13.14
2018-04-06T14:59:06.216Z,13.01
2018-04-06T15:01:33.747Z,13.03
2018-04-06T15:04:01.283Z,13.09
2018-04-06T15:06:28.804Z,13.08
2018-04-06T15:08:56.330Z,13.11
2018-04-06T15:11:23.921Z,13.07
2018-04-06T15:13:51.468Z,13.10
2018-04-06T15:16:18.981Z,13.01
2018-04-06T15:18:46.599Z,12.96
2018-04-06T15:21:14.164Z,13.15
2018-04-06T15:23:41.694Z,13.24
2018-04-06T15:26:09.234Z,13.10
2018-04-06T15:28:36.760Z,13.26
2018-04-06T15:31:04.390Z,13.18
2018-04-06T15:33:31.914Z,13.13
2018-04-06T15:35:59.526Z,13.10
2018-04-06T15:38:27.049Z,13.09
2018-04-06T15:40:54.614Z,13.13
2018-04-06T15:43:22.191Z,13.14
2018-04-06T15:45:49.778Z,13.17
2018-04-06T15:48:17.292Z,13.09
2018-04-06T15:50:44.839Z,13.17
2018-04-06T15:53:12.442Z,13.15
2018-04-06T15:55:39.970Z,13.17
2018-04-06T15:58:07.488Z,13.26
2018-04-06T16:00:35.061Z,13.10
2018-04-06T16:03:02.605Z,13.03
2018-04-06T16:05:30.127Z,12.95
2018-04-06T16:07:57.642Z,13.03
2018-04-06T16:10:25.269Z,13.00
2018-04-06T16:12:52.794Z,12.98
2018-04-06T16:15:20.304Z,12.98
2018-04-06T16:17:47.822Z,12.96
2018-04-06T16:20:15.330Z,12.93
2018-04-06T16:22:42.857Z,12.91
2018-04-06T16:25:10.385Z,12.96
2018-04-06T16:27:37.900Z,12.94
2018-04-06T16:30:05.531Z,12.93
2018-04-06T16:32:33.061Z,12.90
2018-04-06T16:35:00.605Z,12.90
2018-04-06T16:37:28.226Z,12.88
2018-04-06T16:39:55.746Z,12.85
2018-04-06T16:42:23.267Z,12.84
2018-04-06T16:44:50.896Z,12.83
2018-04-06T16:47:18.432Z,12.75
2018-04-06T16:49:45.952Z,12.75
2018-04-06T16:52:13.470Z,12.74
2018-04-06T16:54:41.006Z,12.68
2018-04-06T16:57:08.521Z,12.69
2018-04-06T16:59:36.149Z,12.68
2018-04-06T17:02:03.655Z,12.72
2018-04-06T17:04:31.180Z,12.69
2018-04-06T17:06:58.709Z,12.68
2018-04-06T17:09:26.233Z,12.68
2018-04-06T17:11:53.856Z,12.65
2018-04-06T17:14:21.376Z,12.62
2018-04-06T17:16:48.913Z,12.59
2018-04-06T17:19:16.433Z,12.58
2018-04-06T17:21:43.993Z,12.55
2018-04-06T17:24:11.552Z,12.54
2018-04-06T17:26:39.066Z,12.49
2018-04-06T17:29:06.672Z,12.39
2018-04-06T17:31:34.208Z,12.34
2018-04-06T17:34:01.722Z,12.33
2018-04-06T17:36:29.250Z,12.35
2018-04-06T17:38:56.779Z,12.33
2018-04-06T17:41:24.305Z,12.31
2018-04-06T17:43:51.857Z,12.25
2018-04-06T17:46:19.461Z,12.25
2018-04-06T17:48:46.975Z,12.20
2018-04-06T17:51:14.508Z,12.16
2018-04-06T17:53:42.044Z,12.16
2018-04-06T17:56:09.577Z,12.12
2018-04-06T17:58:37.156Z,12.05
2018-04-06T18:01:04.699Z,12.04
2018-04-06T18:03:32.220Z,12.01
2018-04-06T18:05:59.738Z,11.96
2018-04-06T18:08:27.325Z,11.94
2018-04-06T18:10:54.916Z,11.89
2018-04-06T18:13:22.429Z,11.87
2018-04-06T18:15:50.004Z,11.82
2018-04-06T18:18:17.530Z,11.82
2018-04-06T18:20:45.056Z,11.76
2018-04-06T18:23:12.579Z,11.71
2018-04-06T18:25:40.100Z,11.62
2018-04-06T18:28:07.656Z,11.63
2018-04-06T18:30:35.185Z,11.58
2018-04-06T18:33:02.712Z,11.57
2018-04-06T18:35:30.228Z,11.54
2018-04-06T18:37:57.759Z,11.52
2018-04-06T18:40:25.281Z,11.47
2018-04-06T18:42:52.798Z,11.44
2018-04-06T18:45:20.413Z,11.40
2018-04-06T18:47:47.931Z,11.34
2018-04-06T18:50:15.441Z,11.31
2018-04-06T18:52:42.958Z,11.29
2018-04-06T18:55:10.519Z,11.28
2018-04-06T18:57:38.067Z,11.27
2018-04-06T19:00:05.594Z,11.25
2018-04-06T19:02:33.118Z,11.24
2018-04-06T19:05:00.638Z,11.20
2018-04-06T19:07:28.174Z,11.17
2018-04-06T19:09:55.708Z,11.17
2018-04-06T19:12:23.233Z,11.16
2018-04-06T19:14:50.829Z,11.13
2018-04-06T19:17:18.383Z,11.09
2018-04-06T19:19:45.913Z,11.08
2018-04-06T19:22:13.430Z,11.04
2018-04-06T19:24:40.949Z,11.04
2018-04-06T19:27:08.734Z,11.03
2018-04-06T19:29:36.258Z,11.00
2018-04-06T19:32:03.782Z,10.96
2018-04-06T19:34:31.303Z,10.94
2018-04-06T19:36:58.862Z,10.90
2018-04-06T19:39:26.381Z,10.89
2018-04-06T19:41:54.044Z,10.85
2018-04-06T19:44:21.666Z,10.83
2018-04-06T19:46:49.234Z,10.81
2018-04-06T19:49:16.874Z,10.77
2018-04-06T19:51:44.397Z,10.77
2018-04-06T19:54:11.959Z,10.70
2018-04-06T19:56:39.497Z,10.69
2018-04-06T19:59:07.022Z,10.67
2018-04-06T20:01:34.564Z,10.62
2018-04-06T20:04:02.134Z,10.60
2018-04-06T20:06:29.686Z,10.60
2018-04-06T20:08:57.274Z,10.58
2018-04-06T20:11:24.921Z,10.53
2018-04-06T20:13:52.576Z,10.48
2018-04-06T20:16:20.106Z,10.45
2018-04-06T20:18:47.618Z,10.42
2018-04-06T20:21:15.149Z,10.39
2018-04-06T20:23:42.666Z,10.36
2018-04-06T20:26:10.221Z,10.28
2018-04-06T20:28:37.797Z,10.25
2018-04-06T20:31:05.570Z,10.20
2018-04-06T20:33:33.162Z,10.11
2018-04-06T20:36:00.823Z,10.08
2018-04-06T20:38:28.337Z,9.96
2018-04-06T20:40:55.848Z,9.95
2018-04-06T20:43:23.392Z,9.83
2018-04-06T20:45:51.164Z,9.79
2018-04-06T20:48:18.913Z,9.79
2018-04-06T20:50:46.532Z,9.78
2018-04-06T20:53:14.072Z,9.70
2018-04-06T20:55:41.610Z,9.64
2018-04-06T20:58:09.161Z,9.61
2018-04-06T21:00:36.677Z,9.55
2018-04-06T21:03:04.276Z,9.50
2018-04-06T21:05:31.878Z,9.51
2018-04-06T21:07:59.408Z,9.51
2018-04-06T21:10:26.930Z,9.45
2018-04-06T21:12:54.469Z,9.42
2018-04-06T21:15:21.994Z,9.37
2018-04-06T21:17:49.509Z,9.36
2018-04-06T21:20:17.103Z,9.28
2018-04-06T21:22:44.629Z,9.27
2018-04-06T21:25:12.150Z,9.21
2018-04-06T21:27:39.779Z,9.20
2018-04-06T21:30:07.297Z,9.15
2018-04-06T21:32:34.842Z,9.05
2018-04-06T21:35:02.380Z,8.95
2018-04-06T21:37:29.894Z,8.97
2018-04-06T21:39:57.412Z,8.92
2018-04-06T21:42:24.925Z,8.89
2018-04-06T21:44:52.442Z,8.85
2018-04-06T21:47:19.983Z,8.79
2018-04-06T21:49:47.512Z,8.73
2018-04-06T21:52:15.025Z,8.74
2018-04-06T21:54:42.637Z,8.71
2018-04-06T21:57:10.367Z,8.68
2018-04-06T21:59:37.880Z,8.66
2018-04-06T22:02:05.399Z,8.68
2018-04-06T22:04:32.980Z,8.61
2018-04-06T22:07:00.490Z,8.60
2018-04-06T22:09:28.030Z,8.60
2018-04-06T22:11:55.540Z,8.55
2018-04-06T22:14:23.055Z,8.55
2018-04-06T22:16:50.574Z,8.50
2018-04-06T22:19:18.090Z,8.46
2018-04-06T22:21:45.601Z,8.39
2018-04-06T22:24:13.116Z,8.36
2018-04-06T22:26:40.711Z,8.37
2018-04-06T22:29:08.249Z,8.32
2018-04-06T22:31:35.767Z,8.29
2018-04-06T22:34:03.391Z,8.24
2018-04-06T22:36:30.919Z,8.24
2018-04-06T22:38:58.438Z,8.20
2018-04-06T22:41:25.981Z,8.19
2018-04-06T22:43:53.496Z,8.15
2018-04-06T22:46:21.091Z,8.15
2018-04-06T22:48:48.716Z,8.13
2018-04-06T22:51:16.233Z,8.08
2018-04-06T22:53:44.280Z,8.07
2018-04-06T22:56:11.919Z,8.06
2018-04-06T22:58:39.421Z,8.03
2018-04-06T23:01:06.930Z,8.01
2018-04-06T23:03:34.452Z,8.01
2018-04-06T23:06:02.022Z,7.99
2018-04-06T23:08:29.558Z,8.00
2018-04-06T23:10:57.200Z,7.97
2018-04-06T23:13:24.729Z,7.96
2018-04-06T23:15:52.277Z,7.91
2018-04-06T23:18:19.796Z,7.90
2018-04-06T23:20:47.333Z,7.89
2018-04-06T23:23:14.898Z,7.86
2018-04-06T23:25:42.442Z,7.84
2018-04-06T23:28:09.959Z,7.84
2018-04-06T23:30:37.573Z,7.79
2018-04-06T23:33:05.135Z,7.72
2018-04-06T23:35:32.644Z,7.69
2018-04-06T23:38:00.245Z,7.62
2018-04-06T23:40:27.754Z,7.61
2018-04-06T23:42:55.274Z,7.60
2018-04-06T23:45:22.800Z,7.60
2018-04-06T23:47:50.354Z,7.60
2018-04-06T23:50:17.866Z,7.57
2018-04-06T23:52:45.384Z,7.56
2018-04-06T23:55:12.977Z,7.55
2018-04-06T23:57:41.590Z,7.54
